createdAt,value
2023-05-06T00:01:04.632Z,25.54
2023-05-06T00:03:04.634Z,25.62
2023-05-06T00:05:04.532Z,25.56
2023-05-06T00:07:04.608Z,25.53
2023-05-06T00:09:04.634Z,25.29
2023-05-06T00:11:04.649Z,25.55
2023-05-06T00:13:04.668Z,25.60
2023-05-06T00:15:04.608Z,25.52
2023-05-06T00:17:04.649Z,25.54
2023-05-06T00:19:04.611Z,25.58
2023-05-06T00:21:04.604Z,25.54
2023-05-06T00:23:04.570Z,25.54
2023-05-06T00:25:04.619Z,25.60
2023-05-06T00:27:04.540Z,25.54
2023-05-06T00:29:04.659Z,25.52
2023-05-06T00:31:04.559Z,25.63
2023-05-06T00:33:04.708Z,25.52
2023-05-06T00:35:04.544Z,25.55
2023-05-06T00:37:04.608Z,25.52
2023-05-06T00:39:04.668Z,25.51
2023-05-06T00:41:04.625Z,25.60
2023-05-06T00:43:04.662Z,25.60
2023-05-06T00:45:04.708Z,25.56
2023-05-06T00:47:04.670Z,25.54
2023-05-06T00:49:04.613Z,25.56
2023-05-06T00:51:04.657Z,25.56
2023-05-06T00:53:04.609Z,25.63
2023-05-06T00:55:04.685Z,25.47
2023-05-06T00:57:04.604Z,25.52
2023-05-06T00:59:04.619Z,25.60
2023-05-06T01:01:04.648Z,25.54
2023-05-06T01:03:04.807Z,25.56
2023-05-06T01:05:04.587Z,25.52
2023-05-06T01:07:04.640Z,25.51
2023-05-06T01:09:04.665Z,25.60
2023-05-06T01:11:04.663Z,25.52
2023-05-06T01:13:04.744Z,25.50
2023-05-06T01:15:04.708Z,25.51
2023-05-06T01:17:04.775Z,25.39
2023-05-06T01:19:04.582Z,25.37
2023-05-06T01:21:04.723Z,25.50
2023-05-06T01:23:04.726Z,25.38
2023-05-06T01:25:04.744Z,25.39
2023-05-06T01:27:04.658Z,25.45
2023-05-06T01:29:04.679Z,25.44
2023-05-06T01:31:04.725Z,25.44
2023-05-06T01:33:04.757Z,25.39
2023-05-06T01:35:04.740Z,25.46
2023-05-06T01:37:04.636Z,25.50
2023-05-06T01:39:04.600Z,25.51
2023-05-06T01:41:04.666Z,25.58
2023-05-06T01:43:04.693Z,25.50
2023-05-06T01:45:04.743Z,25.52
2023-05-06T01:47:04.659Z,25.54
2023-05-06T01:49:04.690Z,25.52
2023-05-06T01:51:04.601Z,25.49
2023-05-06T01:53:04.787Z,25.56
2023-05-06T01:55:04.747Z,25.51
2023-05-06T01:57:04.741Z,25.52
2023-05-06T01:59:04.739Z,25.52
2023-05-06T02:01:04.722Z,23.54
2023-05-06T02:03:04.776Z,23.41
2023-05-06T02:05:04.729Z,23.34
2023-05-06T02:07:04.775Z,23.39
2023-05-06T02:09:04.711Z,23.90
2023-05-06T02:11:04.593Z,23.96
2023-05-06T02:13:04.771Z,23.97
2023-05-06T02:15:04.787Z,23.86
2023-05-06T02:17:04.731Z,23.84
2023-05-06T02:19:04.680Z,23.96
2023-05-06T02:21:04.814Z,23.95
2023-05-06T02:23:04.739Z,23.91
2023-05-06T02:25:04.788Z,23.96
2023-05-06T02:27:04.799Z,23.81
2023-05-06T02:29:04.697Z,23.86
2023-05-06T02:31:04.751Z,23.89
2023-05-06T02:33:04.796Z,23.84
2023-05-06T02:35:04.763Z,23.88
2023-05-06T02:37:04.776Z,23.94
2023-05-06T02:39:04.677Z,23.83
2023-05-06T02:41:04.750Z,23.34
2023-05-06T02:43:04.780Z,23.33
2023-05-06T02:45:04.783Z,23.22
2023-05-06T02:47:04.785Z,23.14
2023-05-06T02:49:04.766Z,23.21
2023-05-06T02:51:04.787Z,23.39
2023-05-06T02:53:04.838Z,23.47
2023-05-06T02:55:04.787Z,23.72
2023-05-06T02:57:04.809Z,23.63
2023-05-06T02:59:04.769Z,23.68
2023-05-06T03:01:04.810Z,23.61
2023-05-06T03:03:04.880Z,23.73
2023-05-06T03:05:04.832Z,23.70
2023-05-06T03:07:04.825Z,23.65
2023-05-06T03:09:04.854Z,23.65
2023-05-06T03:11:06.760Z,23.68
2023-05-06T03:13:04.910Z,23.63
2023-05-06T03:15:04.800Z,23.79
2023-05-06T03:17:04.757Z,23.68
2023-05-06T03:19:04.861Z,23.67
2023-05-06T03:21:04.846Z,23.68
2023-05-06T03:23:04.772Z,23.11
2023-05-06T03:25:04.833Z,23.16
2023-05-06T03:27:04.823Z,23.17
2023-05-06T03:29:04.769Z,23.10
2023-05-06T03:31:04.891Z,23.08
2023-05-06T03:33:04.878Z,23.41
2023-05-06T03:35:04.818Z,23.43
2023-05-06T03:37:04.804Z,23.25
2023-05-06T03:39:04.880Z,23.18
2023-05-06T03:41:04.857Z,23.17
2023-05-06T03:43:04.866Z,23.23
2023-05-06T03:45:04.737Z,23.15
2023-05-06T03:47:04.816Z,23.26
2023-05-06T03:49:04.842Z,23.43
2023-05-06T03:51:04.903Z,23.40
2023-05-06T03:53:04.888Z,23.39
2023-05-06T03:55:04.892Z,23.34
2023-05-06T03:57:04.781Z,23.03
2023-05-06T03:59:04.820Z,23.37
2023-05-06T04:01:04.854Z,23.20
2023-05-06T04:03:05.003Z,23.06
2023-05-06T04:05:04.848Z,22.87
2023-05-06T04:07:04.864Z,22.82
2023-05-06T04:09:04.832Z,22.84
2023-05-06T04:11:04.936Z,22.95
2023-05-06T04:13:04.882Z,22.87
2023-05-06T04:15:04.916Z,23.11
2023-05-06T04:17:04.846Z,23.02
2023-05-06T04:19:06.502Z,23.15
2023-05-06T04:21:04.870Z,23.09
2023-05-06T04:23:04.859Z,23.10
2023-05-06T04:25:04.869Z,23.09
2023-05-06T04:27:04.902Z,23.08
2023-05-06T04:29:04.958Z,22.91
2023-05-06T04:31:04.801Z,23.12
2023-05-06T04:33:04.900Z,23.13
2023-05-06T04:35:04.902Z,23.11
2023-05-06T04:37:04.897Z,23.16
2023-05-06T04:39:04.890Z,23.29
2023-05-06T04:41:04.974Z,23.26
2023-05-06T04:43:04.749Z,23.29
2023-05-06T04:45:04.906Z,23.12
2023-05-06T04:47:04.823Z,22.95
2023-05-06T04:49:04.922Z,22.95
2023-05-06T04:51:04.806Z,22.89
2023-05-06T04:53:04.826Z,22.92
2023-05-06T04:55:04.927Z,22.87
2023-05-06T04:57:04.974Z,23.25
2023-05-06T04:59:04.901Z,23.25
2023-05-06T05:01:04.894Z,23.25
2023-05-06T05:03:05.381Z,23.24
2023-05-06T05:05:04.940Z,23.38
2023-05-06T05:07:04.869Z,23.34
2023-05-06T05:09:04.882Z,23.49
2023-05-06T05:11:04.908Z,23.38
2023-05-06T05:13:04.965Z,23.28
2023-05-06T05:15:04.888Z,23.29
2023-05-06T05:17:04.952Z,23.37
2023-05-06T05:19:05.760Z,23.42
2023-05-06T05:21:04.857Z,23.17
2023-05-06T05:23:04.927Z,23.12
2023-05-06T05:25:07.499Z,23.06
2023-05-06T05:27:04.975Z,22.75
2023-05-06T05:29:04.904Z,22.71
2023-05-06T05:31:05.068Z,22.92
2023-05-06T05:33:04.982Z,22.84
2023-05-06T05:35:04.978Z,22.85
2023-05-06T05:37:04.884Z,22.85
2023-05-06T05:39:04.950Z,23.38
2023-05-06T05:41:05.001Z,23.59
2023-05-06T05:43:04.959Z,23.66
2023-05-06T05:45:05.013Z,23.65
2023-05-06T05:47:04.949Z,23.53
2023-05-06T05:49:05.029Z,23.55
2023-05-06T05:51:04.981Z,23.53
2023-05-06T05:53:04.984Z,23.65
2023-05-06T05:55:04.974Z,23.72
2023-05-06T05:57:05.055Z,23.91
2023-05-06T05:59:05.021Z,23.94
2023-05-06T06:01:05.011Z,23.98
2023-05-06T06:03:05.260Z,23.97
2023-05-06T06:05:04.968Z,23.89
2023-05-06T06:07:05.237Z,23.81
2023-05-06T06:09:05.004Z,23.50
2023-05-06T06:11:05.014Z,22.89
2023-05-06T06:13:06.128Z,22.68
2023-05-06T06:15:05.222Z,22.69
2023-05-06T06:17:04.954Z,22.72
2023-05-06T06:19:04.915Z,22.82
2023-05-06T06:21:04.964Z,23.25
2023-05-06T06:23:05.154Z,23.49
2023-05-06T06:25:05.077Z,23.73
2023-05-06T06:27:05.051Z,23.84
2023-05-06T06:29:05.030Z,23.98
2023-05-06T06:31:05.132Z,24.10
2023-05-06T06:33:05.078Z,24.12
2023-05-06T06:35:05.071Z,24.40
2023-05-06T06:37:06.236Z,24.38
2023-05-06T06:39:05.026Z,24.40
2023-05-06T06:41:05.084Z,24.40
2023-05-06T06:43:05.033Z,24.36
2023-05-06T06:45:05.032Z,24.30
2023-05-06T06:47:05.163Z,24.34
2023-05-06T06:49:05.084Z,24.38
2023-05-06T06:51:05.045Z,24.12
2023-05-06T06:53:06.335Z,23.70
2023-05-06T06:55:05.076Z,23.57
2023-05-06T06:57:05.028Z,23.62
2023-05-06T06:59:05.050Z,23.55
2023-05-06T07:01:05.064Z,23.76
2023-05-06T07:03:04.951Z,24.12
2023-05-06T07:05:04.982Z,23.89
2023-05-06T07:07:05.082Z,24.10
2023-05-06T07:09:05.053Z,24.35
2023-05-06T07:11:05.078Z,24.58
2023-05-06T07:13:05.078Z,24.57
2023-05-06T07:15:05.083Z,24.59
2023-05-06T07:17:05.023Z,24.66
2023-05-06T07:19:05.091Z,24.64
2023-05-06T07:21:05.063Z,24.71
2023-05-06T07:23:05.114Z,24.80
2023-05-06T07:25:05.084Z,24.90
2023-05-06T07:27:05.074Z,24.67
2023-05-06T07:29:05.046Z,24.95
2023-05-06T07:31:05.141Z,24.74
2023-05-06T07:33:05.080Z,24.20
2023-05-06T07:35:04.986Z,23.73
2023-05-06T07:37:05.095Z,23.80
2023-05-06T07:39:05.056Z,23.65
2023-05-06T07:41:05.089Z,23.63
2023-05-06T07:43:05.093Z,23.96
2023-05-06T07:45:05.096Z,24.23
2023-05-06T07:47:05.260Z,24.10
2023-05-06T07:49:05.080Z,24.12
2023-05-06T07:51:05.057Z,25.05
2023-05-06T07:53:05.186Z,24.67
2023-05-06T07:55:05.102Z,25.09
2023-05-06T07:57:05.057Z,25.12
2023-05-06T07:59:05.061Z,25.23
2023-05-06T08:01:05.149Z,25.19
2023-05-06T08:03:05.150Z,24.92
2023-05-06T08:05:05.131Z,25.10
2023-05-06T08:07:05.134Z,24.99
2023-05-06T08:09:05.106Z,25.47
2023-05-06T08:11:05.109Z,24.85
2023-05-06T08:13:05.061Z,24.81
2023-05-06T08:15:05.194Z,24.21
2023-05-06T08:17:05.090Z,24.53
2023-05-06T08:19:05.186Z,23.96
2023-05-06T08:21:05.161Z,24.23
2023-05-06T08:23:05.135Z,24.86
2023-05-06T08:25:05.097Z,25.18
2023-05-06T08:27:05.106Z,25.23
2023-05-06T08:29:05.165Z,25.23
2023-05-06T08:31:05.097Z,25.07
2023-05-06T08:33:05.230Z,25.18
2023-05-06T08:35:05.182Z,25.32
2023-05-06T08:37:05.120Z,25.52
2023-05-06T08:39:05.136Z,25.23
2023-05-06T08:41:05.186Z,25.79
2023-05-06T08:43:05.208Z,25.27
2023-05-06T08:45:05.156Z,24.90
2023-05-06T08:47:05.178Z,25.01
2023-05-06T08:49:05.170Z,24.79
2023-05-06T08:51:05.112Z,24.80
2023-05-06T08:53:05.089Z,24.76
2023-05-06T08:55:05.205Z,24.94
2023-05-06T08:57:05.277Z,23.80
2023-05-06T08:59:05.171Z,24.21
2023-05-06T09:01:05.164Z,24.26
2023-05-06T09:03:05.262Z,24.08
2023-05-06T09:05:05.174Z,24.11
2023-05-06T09:07:05.164Z,25.41
2023-05-06T09:09:05.174Z,25.65
2023-05-06T09:11:05.192Z,25.80
2023-05-06T09:13:05.207Z,25.14
2023-05-06T09:15:05.177Z,25.09
2023-05-06T09:17:05.269Z,25.40
2023-05-06T09:19:05.221Z,25.58
2023-05-06T09:21:05.192Z,25.29
2023-05-06T09:23:05.229Z,25.73
2023-05-06T09:25:05.144Z,25.81
2023-05-06T09:27:05.151Z,25.79
2023-05-06T09:29:05.290Z,25.54
2023-05-06T09:31:05.267Z,25.47
2023-05-06T09:33:05.429Z,25.46
2023-05-06T09:35:05.199Z,24.95
2023-05-06T09:37:05.193Z,24.76
2023-05-06T09:39:05.128Z,23.98
2023-05-06T09:41:05.261Z,23.86
2023-05-06T09:43:05.130Z,23.81
2023-05-06T09:45:05.271Z,23.83
2023-05-06T09:47:05.248Z,23.81
2023-05-06T09:49:05.240Z,24.43
2023-05-06T09:51:05.120Z,24.59
2023-05-06T09:53:05.213Z,24.55
2023-05-06T09:55:05.169Z,24.59
2023-05-06T09:57:05.257Z,26.28
2023-05-06T09:59:05.229Z,25.04
2023-05-06T10:01:05.169Z,25.28
2023-05-06T10:03:05.324Z,25.37
2023-05-06T10:05:05.497Z,25.52
2023-05-06T10:07:05.238Z,25.34
2023-05-06T10:09:05.263Z,24.99
2023-05-06T10:11:05.206Z,25.24
2023-05-06T10:13:05.318Z,25.35
2023-05-06T10:15:05.213Z,25.31
2023-05-06T10:17:05.248Z,25.44
2023-05-06T10:19:05.263Z,24.80
2023-05-06T10:21:05.302Z,24.43
2023-05-06T10:23:05.284Z,25.29
2023-05-06T10:25:05.290Z,25.40
2023-05-06T10:27:05.274Z,25.22
2023-05-06T10:29:05.234Z,24.74
2023-05-06T10:31:05.230Z,25.42
2023-05-06T10:33:05.293Z,25.58
2023-05-06T10:35:05.204Z,26.71
2023-05-06T10:37:05.238Z,25.12
2023-05-06T10:39:05.263Z,25.08
2023-05-06T10:41:05.289Z,25.01
2023-05-06T10:43:05.205Z,25.01
2023-05-06T10:45:05.280Z,25.25
2023-05-06T10:47:05.262Z,25.45
2023-05-06T10:49:05.304Z,25.81
2023-05-06T10:51:05.330Z,26.11
2023-05-06T10:53:05.333Z,26.32
2023-05-06T10:55:05.306Z,26.21
2023-05-06T10:57:05.237Z,26.39
2023-05-06T10:59:05.345Z,25.52
2023-05-06T11:01:05.396Z,24.89
2023-05-06T11:03:05.395Z,24.65
2023-05-06T11:05:05.327Z,25.21
2023-05-06T11:07:05.295Z,26.51
2023-05-06T11:09:05.309Z,24.90
2023-05-06T11:11:05.318Z,25.90
2023-05-06T11:13:05.324Z,26.09
2023-05-06T11:15:05.287Z,24.76
2023-05-06T11:17:05.467Z,24.29
2023-05-06T11:19:05.290Z,24.38
2023-05-06T11:21:05.356Z,24.34
2023-05-06T11:23:05.379Z,24.15
2023-05-06T11:25:05.350Z,24.30
2023-05-06T11:27:05.383Z,24.57
2023-05-06T11:29:05.378Z,24.53
2023-05-06T11:31:05.296Z,24.58
2023-05-06T11:33:05.661Z,24.59
2023-05-06T11:35:05.240Z,24.50
2023-05-06T11:37:05.374Z,24.62
2023-05-06T11:39:05.346Z,24.74
2023-05-06T11:41:05.139Z,24.94
2023-05-06T11:43:05.279Z,23.81
2023-05-06T11:45:05.342Z,23.80
2023-05-06T11:47:05.425Z,23.68
2023-05-06T11:49:05.401Z,23.73
2023-05-06T11:51:05.229Z,23.73
2023-05-06T11:53:05.406Z,24.26
2023-05-06T11:55:05.307Z,24.54
2023-05-06T11:57:05.356Z,24.71
2023-05-06T11:59:05.362Z,24.85
2023-05-06T12:01:05.421Z,25.19
2023-05-06T12:03:05.466Z,25.49
2023-05-06T12:05:05.362Z,25.23
2023-05-06T12:07:05.472Z,24.95
2023-05-06T12:09:05.354Z,24.83
2023-05-06T12:11:05.410Z,24.77
2023-05-06T12:13:05.348Z,24.76
2023-05-06T12:15:05.405Z,24.97
2023-05-06T12:17:05.452Z,26.18
2023-05-06T12:19:05.363Z,25.80
2023-05-06T12:21:05.348Z,25.08
2023-05-06T12:23:05.424Z,24.95
2023-05-06T12:25:05.363Z,24.92
2023-05-06T12:27:05.390Z,26.10
2023-05-06T12:29:05.394Z,26.37
2023-05-06T12:31:05.528Z,25.11
2023-05-06T12:33:05.365Z,25.05
2023-05-06T12:35:05.414Z,26.43
2023-05-06T12:37:05.426Z,26.55
2023-05-06T12:39:05.385Z,26.49
2023-05-06T12:41:05.312Z,26.43
2023-05-06T12:43:05.431Z,26.28
2023-05-06T12:45:05.474Z,26.17
2023-05-06T12:47:05.393Z,26.29
2023-05-06T12:49:05.416Z,26.22
2023-05-06T12:51:05.406Z,26.48
2023-05-06T12:53:05.418Z,25.22
2023-05-06T12:55:05.347Z,25.00
2023-05-06T12:57:05.467Z,25.01
2023-05-06T12:59:05.617Z,25.42
2023-05-06T13:01:05.521Z,25.24
2023-05-06T13:03:05.543Z,25.64
2023-05-06T13:05:05.401Z,24.96
2023-05-06T13:07:05.556Z,23.96
2023-05-06T13:09:05.394Z,24.05
2023-05-06T13:11:05.440Z,24.10
2023-05-06T13:13:05.488Z,24.02
2023-05-06T13:15:05.633Z,24.00
2023-05-06T13:17:05.418Z,24.81
2023-05-06T13:19:05.513Z,25.52
2023-05-06T13:21:06.524Z,25.60
2023-05-06T13:23:05.442Z,25.81
2023-05-06T13:25:05.473Z,26.08
2023-05-06T13:27:05.413Z,26.46
2023-05-06T13:29:05.463Z,25.07
2023-05-06T13:31:05.436Z,25.00
2023-05-06T13:33:05.513Z,25.07
2023-05-06T13:35:05.431Z,25.05
2023-05-06T13:37:05.527Z,25.05
2023-05-06T13:39:05.455Z,25.09
2023-05-06T13:41:05.428Z,25.09
2023-05-06T13:43:05.457Z,24.51
2023-05-06T13:45:05.452Z,25.33
2023-05-06T13:47:05.446Z,25.65
2023-05-06T13:49:05.493Z,25.09
2023-05-06T13:51:05.307Z,26.09
2023-05-06T13:53:05.525Z,24.63
2023-05-06T13:55:05.558Z,26.24
2023-05-06T13:57:05.436Z,26.07
2023-05-06T13:59:05.498Z,24.61
2023-05-06T14:01:05.566Z,26.35
2023-05-06T14:03:05.482Z,25.16
2023-05-06T14:05:05.582Z,24.52
2023-05-06T14:07:05.507Z,24.52
2023-05-06T14:09:05.432Z,24.53
2023-05-06T14:11:05.583Z,24.62
2023-05-06T14:13:07.160Z,24.60
2023-05-06T14:15:05.525Z,24.66
2023-05-06T14:17:05.465Z,26.49
2023-05-06T14:19:05.427Z,24.54
2023-05-06T14:21:05.539Z,26.35
2023-05-06T14:23:05.505Z,24.25
2023-05-06T14:25:05.532Z,24.52
2023-05-06T14:27:05.589Z,24.55
2023-05-06T14:29:05.470Z,25.32
2023-05-06T14:31:05.486Z,26.22
2023-05-06T14:33:05.616Z,26.07
2023-05-06T14:35:05.609Z,25.47
2023-05-06T14:37:05.392Z,26.08
2023-05-06T14:39:05.597Z,24.66
2023-05-06T14:41:05.521Z,26.37
2023-05-06T14:43:05.512Z,26.43
2023-05-06T14:45:05.633Z,24.55
2023-05-06T14:47:05.467Z,26.31
2023-05-06T14:49:05.592Z,24.72
2023-05-06T14:51:05.583Z,26.40
2023-05-06T14:53:05.550Z,24.54
2023-05-06T14:55:05.489Z,24.47
2023-05-06T14:57:05.450Z,24.55
2023-05-06T14:59:05.560Z,24.59
2023-05-06T15:01:05.519Z,24.55
2023-05-06T15:03:05.546Z,26.34
2023-05-06T15:05:05.584Z,24.64
2023-05-06T15:07:05.588Z,26.22
2023-05-06T15:09:05.528Z,24.54
2023-05-06T15:11:05.550Z,25.57
2023-05-06T15:13:05.604Z,26.10
2023-05-06T15:15:05.688Z,24.51
2023-05-06T15:17:05.691Z,25.12
2023-05-06T15:19:05.591Z,24.66
2023-05-06T15:21:05.590Z,25.90
2023-05-06T15:23:05.603Z,26.50
2023-05-06T15:25:05.537Z,24.64
2023-05-06T15:27:05.501Z,24.54
2023-05-06T15:29:05.620Z,24.66
2023-05-06T15:31:05.526Z,24.76
2023-05-06T15:33:05.677Z,26.38
2023-05-06T15:35:05.537Z,26.55
2023-05-06T15:37:05.624Z,24.79
2023-05-06T15:39:05.581Z,26.42
2023-05-06T15:41:05.664Z,25.75
2023-05-06T15:43:05.602Z,24.98
2023-05-06T15:45:05.589Z,24.80
2023-05-06T15:47:05.634Z,24.95
2023-05-06T15:51:05.627Z,24.90
2023-05-06T15:53:05.659Z,24.15
2023-05-06T15:55:05.624Z,23.81
2023-05-06T15:57:06.908Z,23.84
2023-05-06T15:59:05.640Z,24.29
2023-05-06T16:01:05.635Z,24.61
2023-05-06T16:05:05.823Z,24.59
2023-05-06T16:07:05.722Z,24.63
2023-05-06T16:09:05.618Z,24.66
2023-05-06T16:11:05.562Z,24.62
2023-05-06T16:13:05.644Z,26.46
2023-05-06T16:15:05.620Z,25.94
2023-05-06T16:17:05.661Z,24.62
2023-05-06T16:19:05.665Z,24.68
2023-05-06T16:21:05.659Z,24.50
2023-05-06T16:23:05.674Z,24.54
2023-05-06T16:25:05.689Z,24.53
2023-05-06T16:27:05.657Z,24.98
2023-05-06T16:29:05.689Z,25.33
2023-05-06T16:31:05.707Z,25.35
2023-05-06T16:33:05.726Z,24.51
2023-05-06T16:35:05.678Z,23.43
2023-05-06T16:37:05.714Z,23.23
2023-05-06T16:39:05.671Z,23.34
2023-05-06T16:41:05.734Z,23.25
2023-05-06T16:43:05.618Z,23.26
2023-05-06T16:45:05.901Z,24.04
2023-05-06T16:47:05.617Z,24.32
2023-05-06T16:49:05.613Z,24.71
2023-05-06T16:51:05.649Z,25.54
2023-05-06T16:53:05.519Z,24.43
2023-05-06T16:55:05.666Z,24.46
2023-05-06T16:57:05.485Z,24.47
2023-05-06T16:59:05.673Z,24.51
2023-05-06T17:01:05.643Z,24.21
2023-05-06T17:03:05.957Z,24.10
2023-05-06T17:05:05.697Z,24.10
2023-05-06T17:07:05.693Z,24.89
2023-05-06T17:09:05.840Z,24.90
2023-05-06T17:11:05.588Z,24.20
2023-05-06T17:13:05.747Z,24.30
2023-05-06T17:15:05.706Z,23.48
2023-05-06T17:17:05.847Z,22.83
2023-05-06T17:19:05.710Z,22.86
2023-05-06T17:21:05.661Z,22.86
2023-05-06T17:23:05.746Z,22.84
2023-05-06T17:25:05.725Z,23.09
2023-05-06T17:27:05.753Z,23.30
2023-05-06T17:29:05.752Z,23.45
2023-05-06T17:31:05.802Z,23.44
2023-05-06T17:33:05.709Z,23.47
2023-05-06T17:35:05.754Z,23.57
2023-05-06T17:37:05.633Z,23.53
2023-05-06T17:39:05.697Z,23.54
2023-05-06T17:41:05.772Z,23.57
2023-05-06T17:43:05.771Z,23.62
2023-05-06T17:45:05.684Z,23.54
2023-05-06T17:47:05.762Z,23.55
2023-05-06T17:49:05.789Z,23.49
2023-05-06T17:51:05.677Z,23.52
2023-05-06T17:53:05.748Z,23.50
2023-05-06T17:55:16.355Z,23.42
2023-05-06T17:57:05.805Z,22.81
2023-05-06T17:59:05.732Z,22.82
2023-05-06T18:01:05.639Z,23.75
2023-05-06T18:03:05.834Z,23.96
2023-05-06T18:05:05.692Z,24.00
2023-05-06T18:07:05.783Z,24.05
2023-05-06T18:09:05.755Z,24.10
2023-05-06T18:11:05.733Z,24.10
2023-05-06T18:13:05.854Z,24.10
2023-05-06T18:15:05.724Z,24.10
2023-05-06T18:17:05.762Z,24.12
2023-05-06T18:19:05.774Z,24.10
2023-05-06T18:21:05.656Z,24.09
2023-05-06T18:23:05.793Z,23.93
2023-05-06T18:25:05.675Z,24.14
2023-05-06T18:27:05.774Z,24.09
2023-05-06T18:29:05.803Z,24.04
2023-05-06T18:31:05.754Z,24.10
2023-05-06T18:33:05.698Z,24.04
2023-05-06T18:35:05.698Z,24.05
2023-05-06T18:37:05.730Z,24.04
2023-05-06T18:39:05.794Z,24.01
2023-05-06T18:41:05.815Z,24.01
2023-05-06T18:43:05.755Z,23.98
2023-05-06T18:45:05.751Z,24.01
2023-05-06T18:47:05.834Z,24.07
2023-05-06T18:49:05.744Z,23.98
2023-05-06T18:51:05.736Z,23.96
2023-05-06T18:53:05.621Z,23.95
2023-05-06T18:55:05.824Z,23.96
2023-05-06T18:57:05.739Z,23.88
2023-05-06T18:59:05.659Z,23.96
2023-05-06T19:01:05.928Z,23.97
2023-05-06T19:03:05.857Z,23.93
2023-05-06T19:05:05.836Z,24.00
2023-05-06T19:07:05.767Z,23.96
2023-05-06T19:09:05.909Z,24.04
2023-05-06T19:11:05.771Z,23.96
2023-05-06T19:13:05.922Z,26.22
2023-05-06T19:15:05.860Z,27.08
2023-05-06T19:17:05.980Z,27.16
2023-05-06T19:19:05.888Z,27.21
2023-05-06T19:21:05.760Z,27.26
2023-05-06T19:23:05.813Z,27.16
2023-05-06T19:25:05.858Z,27.23
2023-05-06T19:27:05.812Z,27.27
2023-05-06T19:29:05.747Z,27.23
2023-05-06T19:31:05.950Z,27.34
2023-05-06T19:33:05.940Z,27.23
2023-05-06T19:35:05.858Z,27.23
2023-05-06T19:37:05.897Z,27.31
2023-05-06T19:39:05.855Z,25.65
2023-05-06T19:41:05.794Z,25.65
2023-05-06T19:43:05.826Z,25.58
2023-05-06T19:45:05.812Z,25.75
2023-05-06T19:47:05.809Z,25.60
2023-05-06T19:49:05.871Z,25.56
2023-05-06T19:51:05.831Z,25.60
2023-05-06T19:53:05.790Z,25.60
2023-05-06T19:55:05.930Z,25.63
2023-05-06T19:57:05.872Z,25.63
2023-05-06T19:59:05.971Z,25.60
2023-05-06T20:01:05.907Z,25.62
2023-05-06T20:03:05.969Z,25.57
2023-05-06T20:05:05.791Z,25.60
2023-05-06T20:07:05.877Z,25.61
2023-05-06T20:09:05.953Z,25.60
2023-05-06T20:11:05.847Z,25.60
2023-05-06T20:13:05.860Z,25.65
2023-05-06T20:15:05.877Z,25.58
2023-05-06T20:17:05.850Z,25.57
2023-05-06T20:19:05.852Z,25.60
2023-05-06T20:21:05.879Z,25.60
2023-05-06T20:23:05.856Z,25.72
2023-05-06T20:25:05.902Z,25.58
2023-05-06T20:27:05.950Z,25.71
2023-05-06T20:29:05.905Z,25.56
2023-05-06T20:31:05.856Z,25.57
2023-05-06T20:33:06.040Z,25.62
2023-05-06T20:35:05.952Z,25.57
2023-05-06T20:37:05.882Z,25.61
2023-05-06T20:39:05.853Z,25.61
2023-05-06T20:41:05.932Z,25.58
2023-05-06T20:43:05.912Z,25.64
2023-05-06T20:45:05.954Z,25.72
2023-05-06T20:47:05.793Z,25.63
2023-05-06T20:49:05.759Z,25.64
2023-05-06T20:51:05.923Z,25.58
2023-05-06T20:53:05.932Z,25.65
2023-05-06T20:55:05.994Z,25.60
2023-05-06T20:57:05.949Z,25.53
2023-05-06T20:59:05.885Z,25.72
2023-05-06T21:01:06.083Z,25.60
2023-05-06T21:03:05.961Z,25.62
2023-05-06T21:05:05.953Z,25.75
2023-05-06T21:07:05.878Z,25.59
2023-05-06T21:09:05.992Z,25.60
2023-05-06T21:11:05.934Z,25.60
2023-05-06T21:13:05.943Z,25.60
2023-05-06T21:15:05.880Z,25.65
2023-05-06T21:17:05.959Z,25.60
2023-05-06T21:19:05.953Z,25.58
2023-05-06T21:21:06.014Z,25.61
2023-05-06T21:23:05.990Z,25.58
2023-05-06T21:25:05.975Z,25.61
2023-05-06T21:27:05.960Z,25.57
2023-05-06T21:29:06.034Z,25.65
2023-05-06T21:31:06.038Z,25.65
2023-05-06T21:33:06.032Z,25.60
2023-05-06T21:35:05.970Z,25.56
2023-05-06T21:37:05.921Z,25.61
2023-05-06T21:39:05.956Z,25.59
2023-05-06T21:41:05.981Z,25.52
2023-05-06T21:43:05.968Z,25.61
2023-05-06T21:45:05.920Z,25.58
2023-05-06T21:47:05.968Z,25.54
2023-05-06T21:49:05.972Z,25.58
2023-05-06T21:51:06.039Z,25.64
2023-05-06T21:53:05.933Z,25.56
2023-05-06T21:55:05.985Z,25.61
2023-05-06T21:57:05.946Z,25.53
2023-05-06T21:59:05.959Z,25.65
2023-05-06T22:01:05.949Z,25.65
2023-05-06T22:03:06.037Z,25.60
2023-05-06T22:05:06.050Z,25.74
2023-05-06T22:07:06.006Z,25.64
2023-05-06T22:09:06.015Z,25.62
2023-05-06T22:11:06.004Z,25.58
2023-05-06T22:13:06.021Z,25.65
2023-05-06T22:15:05.993Z,25.58
2023-05-06T22:17:06.134Z,25.58
2023-05-06T22:19:06.841Z,25.60
2023-05-06T22:21:06.054Z,25.61
2023-05-06T22:23:06.071Z,25.65
2023-05-06T22:25:05.877Z,25.60
2023-05-06T22:27:06.010Z,25.61
2023-05-06T22:29:06.057Z,25.64
2023-05-06T22:31:06.061Z,25.55
2023-05-06T22:33:06.107Z,25.27
2023-05-06T22:35:06.058Z,25.61
2023-05-06T22:37:06.061Z,25.57
2023-05-06T22:39:05.961Z,25.59
2023-05-06T22:41:06.022Z,25.65
2023-05-06T22:43:06.107Z,25.58
2023-05-06T22:45:05.926Z,25.55
2023-05-06T22:47:06.038Z,25.58
2023-05-06T22:49:06.008Z,25.58
2023-05-06T22:51:05.962Z,25.63
2023-05-06T22:53:14.507Z,25.58
2023-05-06T22:55:06.041Z,25.57
2023-05-06T22:57:06.150Z,25.55
2023-05-06T22:59:06.101Z,25.57
2023-05-06T23:01:06.077Z,25.54
2023-05-06T23:03:06.033Z,25.60
2023-05-06T23:05:06.171Z,25.56
2023-05-06T23:07:06.024Z,25.61
2023-05-06T23:09:06.074Z,25.28
2023-05-06T23:11:06.017Z,25.61
2023-05-06T23:13:06.069Z,25.61
2023-05-06T23:15:06.131Z,25.72
2023-05-06T23:17:06.061Z,25.55
2023-05-06T23:19:06.073Z,25.58
2023-05-06T23:21:06.130Z,25.60
2023-05-06T23:23:06.125Z,25.61
2023-05-06T23:25:06.822Z,25.54
2023-05-06T23:27:06.110Z,25.58
2023-05-06T23:29:06.052Z,25.60
2023-05-06T23:31:06.091Z,25.61
2023-05-06T23:33:06.100Z,25.54
2023-05-06T23:35:06.100Z,25.56
2023-05-06T23:37:06.131Z,25.58
2023-05-06T23:39:06.104Z,25.54
2023-05-06T23:41:07.931Z,25.61
2023-05-06T23:43:06.138Z,25.60
2023-05-06T23:45:06.078Z,25.75
2023-05-06T23:47:06.116Z,25.57
2023-05-06T23:49:06.125Z,25.65
2023-05-06T23:51:06.117Z,25.73
2023-05-06T23:53:06.100Z,25.58
2023-05-06T23:55:06.147Z,25.60
2023-05-06T23:57:06.098Z,25.60
2023-05-06T23:59:06.191Z,25.58
